sensor_id;sensor_type;location;lat;lon;timestamp;P1;durP1;ratioP1;P2;durP2;ratioP2
43554;SDS011;35085;40.398;-3.702;2023-01-08T00:09:05;43.55;;;18.95;;
43554;SDS011;35085;40.398;-3.702;2023-01-08T00:19:13;38.38;;;17.55;;
43554;SDS011;35085;40.398;-3.702;2023-01-08T00:29:22;39.90;;;17.27;;
43554;SDS011;35085;40.398;-3.702;2023-01-08T00:39:31;44.00;;;19.45;;
43554;SDS011;35085;40.398;-3.702;2023-01-08T00:49:40;40.60;;;17.75;;
43554;SDS011;35085;40.398;-3.702;2023-01-08T00:59:42;39.17;;;17.10;;
43554;SDS011;35085;40.398;-3.702;2023-01-08T01:09:51;36.50;;;16.60;;
43554;SDS011;35085;40.398;-3.702;2023-01-08T01:19:54;41.47;;;17.13;;
43554;SDS011;35085;40.398;-3.702;2023-01-08T01:30:03;38.47;;;17.55;;
43554;SDS011;35085;40.398;-3.702;2023-01-08T01:40:05;39.38;;;17.10;;
43554;SDS011;35085;40.398;-3.702;2023-01-08T01:50:35;44.70;;;18.50;;
43554;SDS011;35085;40.398;-3.702;2023-01-08T02:00:42;45.72;;;19.10;;
43554;SDS011;35085;40.398;-3.702;2023-01-08T02:10:50;46.28;;;18.63;;
43554;SDS011;35085;40.398;-3.702;2023-01-08T02:21:02;42.40;;;18.00;;
43554;SDS011;35085;40.398;-3.702;2023-01-08T02:31:06;38.15;;;16.02;;
43554;SDS011;35085;40.398;-3.702;2023-01-08T02:41:19;10.70;;;5.72;;
43554;SDS011;35085;40.398;-3.702;2023-01-08T02:51:50;6.55;;;3.50;;
43554;SDS011;35085;40.398;-3.702;2023-01-08T03:02:09;5.50;;;2.70;;
43554;SDS011;35085;40.398;-3.702;2023-01-08T03:12:44;5.40;;;2.45;;
43554;SDS011;35085;40.398;-3.702;2023-01-08T03:23:08;4.35;;;2.35;;
43554;SDS011;35085;40.398;-3.702;2023-01-08T03:33:27;3.60;;;1.70;;
43554;SDS011;35085;40.398;-3.702;2023-01-08T03:43:51;1.30;;;0.80;;
43554;SDS011;35085;40.398;-3.702;2023-01-08T03:54:12;1.60;;;0.60;;
43554;SDS011;35085;40.398;-3.702;2023-01-08T04:04:34;1.17;;;0.57;;
43554;SDS011;35085;40.398;-3.702;2023-01-08T04:15:03;0.95;;;0.40;;
43554;SDS011;35085;40.398;-3.702;2023-01-08T04:25:31;2.33;;;0.80;;
43554;SDS011;35085;40.398;-3.702;2023-01-08T04:36:02;1.45;;;0.60;;
43554;SDS011;35085;40.398;-3.702;2023-01-08T04:46:28;1.38;;;0.65;;
43554;SDS011;35085;40.398;-3.702;2023-01-08T04:56:56;1.88;;;0.40;;
43554;SDS011;35085;40.398;-3.702;2023-01-08T05:07:17;1.17;;;0.40;;
43554;SDS011;35085;40.398;-3.702;2023-01-08T05:17:38;0.88;;;0.40;;
43554;SDS011;35085;40.398;-3.702;2023-01-08T05:28:00;1.98;;;0.30;;
43554;SDS011;35085;40.398;-3.702;2023-01-08T05:38:21;1.58;;;0.45;;
43554;SDS011;35085;40.398;-3.702;2023-01-08T05:48:36;1.80;;;0.60;;
43554;SDS011;35085;40.398;-3.702;2023-01-08T05:59:01;2.42;;;0.50;;
43554;SDS011;35085;40.398;-3.702;2023-01-08T06:09:13;1.77;;;0.70;;
43554;SDS011;35085;40.398;-3.702;2023-01-08T06:19:23;1.45;;;0.70;;
43554;SDS011;35085;40.398;-3.702;2023-01-08T06:29:29;3.13;;;0.52;;
43554;SDS011;35085;40.398;-3.702;2023-01-08T06:39:40;3.17;;;0.60;;
43554;SDS011;35085;40.398;-3.702;2023-01-08T06:49:44;2.60;;;1.02;;
43554;SDS011;35085;40.398;-3.702;2023-01-08T06:59:53;1.33;;;0.53;;
43554;SDS011;35085;40.398;-3.702;2023-01-08T07:10:02;1.13;;;0.52;;
43554;SDS011;35085;40.398;-3.702;2023-01-08T07:20:13;1.25;;;0.30;;
43554;SDS011;35085;40.398;-3.702;2023-01-08T07:30:23;2.70;;;1.15;;
43554;SDS011;35085;40.398;-3.702;2023-01-08T07:40:32;1.30;;;0.57;;
43554;SDS011;35085;40.398;-3.702;2023-01-08T07:50:45;2.42;;;0.80;;
43554;SDS011;35085;40.398;-3.702;2023-01-08T08:00:54;0.98;;;0.30;;
43554;SDS011;35085;40.398;-3.702;2023-01-08T08:11:03;4.83;;;2.13;;
43554;SDS011;35085;40.398;-3.702;2023-01-08T08:21:12;0.60;;;0.20;;
43554;SDS011;35085;40.398;-3.702;2023-01-08T08:31:20;2.00;;;0.70;;
43554;SDS011;35085;40.398;-3.702;2023-01-08T08:41:29;1.07;;;0.53;;
43554;SDS011;35085;40.398;-3.702;2023-01-08T08:51:37;0.90;;;0.55;;
43554;SDS011;35085;40.398;-3.702;2023-01-08T09:01:47;1.07;;;0.30;;
43554;SDS011;35085;40.398;-3.702;2023-01-08T09:11:56;1.27;;;0.50;;
43554;SDS011;35085;40.398;-3.702;2023-01-08T09:22:06;0.90;;;0.30;;
43554;SDS011;35085;40.398;-3.702;2023-01-08T09:32:08;0.50;;;0.30;;
43554;SDS011;35085;40.398;-3.702;2023-01-08T09:42:21;1.27;;;0.50;;
43554;SDS011;35085;40.398;-3.702;2023-01-08T09:52:25;1.58;;;0.80;;
43554;SDS011;35085;40.398;-3.702;2023-01-08T10:02:32;2.83;;;0.55;;
43554;SDS011;35085;40.398;-3.702;2023-01-08T10:12:41;1.58;;;0.40;;
43554;SDS011;35085;40.398;-3.702;2023-01-08T10:22:51;0.50;;;0.20;;
43554;SDS011;35085;40.398;-3.702;2023-01-08T10:33:03;2.20;;;1.02;;
43554;SDS011;35085;40.398;-3.702;2023-01-08T10:53:25;1.52;;;0.50;;
43554;SDS011;35085;40.398;-3.702;2023-01-08T11:03:31;2.50;;;0.65;;
43554;SDS011;35085;40.398;-3.702;2023-01-08T11:13:35;1.77;;;0.75;;
43554;SDS011;35085;40.398;-3.702;2023-01-08T11:23:44;3.93;;;0.70;;
43554;SDS011;35085;40.398;-3.702;2023-01-08T11:33:54;3.55;;;0.85;;
43554;SDS011;35085;40.398;-3.702;2023-01-08T11:54:28;2.40;;;0.90;;
43554;SDS011;35085;40.398;-3.702;2023-01-08T12:24:48;2.63;;;0.73;;
43554;SDS011;35085;40.398;-3.702;2023-01-08T12:45:02;3.03;;;1.15;;
43554;SDS011;35085;40.398;-3.702;2023-01-08T12:55:15;2.97;;;0.95;;
43554;SDS011;35085;40.398;-3.702;2023-01-08T13:15:27;2.90;;;0.90;;
43554;SDS011;35085;40.398;-3.702;2023-01-08T13:25:34;2.70;;;0.70;;
43554;SDS011;35085;40.398;-3.702;2023-01-08T13:35:43;1.58;;;0.57;;
43554;SDS011;35085;40.398;-3.702;2023-01-08T13:56:10;1.63;;;0.80;;
43554;SDS011;35085;40.398;-3.702;2023-01-08T14:06:26;4.25;;;0.60;;
43554;SDS011;35085;40.398;-3.702;2023-01-08T14:16:28;2.05;;;0.80;;
43554;SDS011;35085;40.398;-3.702;2023-01-08T14:26:35;3.53;;;1.02;;
43554;SDS011;35085;40.398;-3.702;2023-01-08T14:36:48;4.57;;;0.80;;
43554;SDS011;35085;40.398;-3.702;2023-01-08T14:46:56;1.20;;;0.47;;
43554;SDS011;35085;40.398;-3.702;2023-01-08T14:57:05;0.80;;;0.38;;
43554;SDS011;35085;40.398;-3.702;2023-01-08T15:07:21;1.50;;;0.40;;
43554;SDS011;35085;40.398;-3.702;2023-01-08T15:17:31;0.98;;;0.30;;
43554;SDS011;35085;40.398;-3.702;2023-01-08T15:27:33;1.85;;;0.43;;
43554;SDS011;35085;40.398;-3.702;2023-01-08T15:37:43;1.95;;;0.40;;
43554;SDS011;35085;40.398;-3.702;2023-01-08T15:47:53;0.95;;;0.30;;
43554;SDS011;35085;40.398;-3.702;2023-01-08T15:58:02;1.23;;;0.45;;
43554;SDS011;35085;40.398;-3.702;2023-01-08T16:08:10;0.77;;;0.30;;
43554;SDS011;35085;40.398;-3.702;2023-01-08T16:18:19;2.60;;;0.47;;
43554;SDS011;35085;40.398;-3.702;2023-01-08T16:28:28;0.90;;;0.30;;
43554;SDS011;35085;40.398;-3.702;2023-01-08T16:38:36;1.30;;;0.30;;
43554;SDS011;35085;40.398;-3.702;2023-01-08T16:48:45;1.17;;;0.47;;
43554;SDS011;35085;40.398;-3.702;2023-01-08T16:58:54;1.07;;;0.30;;
43554;SDS011;35085;40.398;-3.702;2023-01-08T17:09:03;4.40;;;1.10;;
43554;SDS011;35085;40.398;-3.702;2023-01-08T17:19:13;0.93;;;0.17;;
43554;SDS011;35085;40.398;-3.702;2023-01-08T17:29:22;1.80;;;0.50;;
43554;SDS011;35085;40.398;-3.702;2023-01-08T17:39:31;4.00;;;1.83;;
43554;SDS011;35085;40.398;-3.702;2023-01-08T17:49:41;0.90;;;0.35;;
43554;SDS011;35085;40.398;-3.702;2023-01-08T17:59:50;2.80;;;1.20;;
43554;SDS011;35085;40.398;-3.702;2023-01-08T18:10:00;1.97;;;0.70;;
43554;SDS011;35085;40.398;-3.702;2023-01-08T18:20:09;2.60;;;0.80;;
43554;SDS011;35085;40.398;-3.702;2023-01-08T18:30:16;2.67;;;0.75;;
43554;SDS011;35085;40.398;-3.702;2023-01-08T18:40:25;2.87;;;1.13;;
43554;SDS011;35085;40.398;-3.702;2023-01-08T19:00:37;4.35;;;2.10;;
43554;SDS011;35085;40.398;-3.702;2023-01-08T19:10:46;3.53;;;1.70;;
43554;SDS011;35085;40.398;-3.702;2023-01-08T19:20:56;3.78;;;1.70;;
43554;SDS011;35085;40.398;-3.702;2023-01-08T19:31:05;3.92;;;1.30;;
43554;SDS011;35085;40.398;-3.702;2023-01-08T19:41:14;1.70;;;0.50;;
43554;SDS011;35085;40.398;-3.702;2023-01-08T19:51:35;3.40;;;1.40;;
43554;SDS011;35085;40.398;-3.702;2023-01-08T20:01:44;3.27;;;1.20;;
43554;SDS011;35085;40.398;-3.702;2023-01-08T20:11:53;1.10;;;0.60;;
43554;SDS011;35085;40.398;-3.702;2023-01-08T20:22:02;1.20;;;0.40;;
43554;SDS011;35085;40.398;-3.702;2023-01-08T20:32:11;2.23;;;1.00;;
43554;SDS011;35085;40.398;-3.702;2023-01-08T20:42:22;2.17;;;1.30;;
43554;SDS011;35085;40.398;-3.702;2023-01-08T20:52:31;2.00;;;0.67;;
43554;SDS011;35085;40.398;-3.702;2023-01-08T21:02:42;1.80;;;0.80;;
43554;SDS011;35085;40.398;-3.702;2023-01-08T21:12:48;1.13;;;0.60;;
43554;SDS011;35085;40.398;-3.702;2023-01-08T21:22:58;2.08;;;0.80;;
43554;SDS011;35085;40.398;-3.702;2023-01-08T21:33:10;1.30;;;0.60;;
43554;SDS011;35085;40.398;-3.702;2023-01-08T21:43:20;1.50;;;0.80;;
43554;SDS011;35085;40.398;-3.702;2023-01-08T21:53:42;4.50;;;1.83;;
43554;SDS011;35085;40.398;-3.702;2023-01-08T22:03:51;2.05;;;1.08;;
43554;SDS011;35085;40.398;-3.702;2023-01-08T22:14:00;4.43;;;1.38;;
43554;SDS011;35085;40.398;-3.702;2023-01-08T22:24:11;3.33;;;0.73;;
43554;SDS011;35085;40.398;-3.702;2023-01-08T22:34:20;0.93;;;0.55;;
43554;SDS011;35085;40.398;-3.702;2023-01-08T22:44:32;1.63;;;0.60;;
43554;SDS011;35085;40.398;-3.702;2023-01-08T22:54:49;1.35;;;0.55;;
43554;SDS011;35085;40.398;-3.702;2023-01-08T23:05:04;1.15;;;0.40;;
43554;SDS011;35085;40.398;-3.702;2023-01-08T23:15:15;1.55;;;0.40;;
43554;SDS011;35085;40.398;-3.702;2023-01-08T23:25:25;0.60;;;0.30;;
43554;SDS011;35085;40.398;-3.702;2023-01-08T23:35:36;1.63;;;0.68;;
43554;SDS011;35085;40.398;-3.702;2023-01-08T23:45:50;1.45;;;0.57;;
43554;SDS011;35085;40.398;-3.702;2023-01-08T23:56:05;0.45;;;0.20;;
